createdAt,value
2023-04-23T00:00:11.468Z,0.00
2023-04-23T00:01:11.451Z,0.00
2023-04-23T00:02:11.481Z,0.00
2023-04-23T00:03:11.594Z,0.00
2023-04-23T00:04:11.543Z,0.00
2023-04-23T00:05:11.501Z,0.00
2023-04-23T00:06:11.417Z,0.00
2023-04-23T00:07:11.386Z,0.00
2023-04-23T00:08:11.483Z,0.00
2023-04-23T00:09:11.378Z,0.00
2023-04-23T00:10:11.361Z,0.00
2023-04-23T00:11:11.380Z,0.00
2023-04-23T00:12:11.353Z,0.00
2023-04-23T00:13:11.345Z,0.00
2023-04-23T00:14:11.352Z,0.00
2023-04-23T00:15:11.308Z,0.00
2023-04-23T00:16:11.338Z,0.00
2023-04-23T00:17:11.294Z,0.00
2023-04-23T00:18:11.366Z,0.00
2023-04-23T00:19:11.347Z,0.00
2023-04-23T00:20:11.256Z,0.00
2023-04-23T00:21:11.266Z,0.00
2023-04-23T00:22:11.238Z,0.00
2023-04-23T00:23:11.230Z,0.00
2023-04-23T00:24:11.235Z,0.00
2023-04-23T00:25:11.200Z,0.00
2023-04-23T00:26:11.209Z,0.00
2023-04-23T00:27:11.203Z,0.00
2023-04-23T00:28:11.178Z,0.00
2023-04-23T00:29:11.166Z,0.00
2023-04-23T00:30:11.204Z,0.00
2023-04-23T00:31:11.142Z,0.00
2023-04-23T00:32:11.205Z,0.00
2023-04-23T00:33:11.128Z,0.00
2023-04-23T00:34:11.123Z,0.00
2023-04-23T00:35:11.117Z,0.00
2023-04-23T00:36:11.122Z,0.00
2023-04-23T00:37:11.094Z,0.00
2023-04-23T00:38:11.077Z,0.00
2023-04-23T00:39:11.067Z,0.00
2023-04-23T00:40:11.062Z,0.00
2023-04-23T00:41:11.043Z,0.00
2023-04-23T00:42:11.056Z,0.00
2023-04-23T00:43:11.022Z,0.00
2023-04-23T00:44:11.020Z,0.00
2023-04-23T00:45:11.005Z,0.00
2023-04-23T00:46:11.020Z,0.00
2023-04-23T00:47:10.989Z,0.00
2023-04-23T00:48:10.980Z,0.00
2023-04-23T00:49:10.964Z,0.00
2023-04-23T00:50:10.962Z,0.00
2023-04-23T00:51:10.944Z,0.00
2023-04-23T00:52:10.946Z,0.00
2023-04-23T00:53:10.924Z,0.00
2023-04-23T00:54:10.923Z,0.00
2023-04-23T00:55:10.900Z,0.00
2023-04-23T00:56:10.889Z,0.00
2023-04-23T00:57:10.880Z,0.00
2023-04-23T00:58:10.883Z,0.00
2023-04-23T00:59:10.861Z,0.00
2023-04-23T01:00:10.851Z,0.00
2023-04-23T01:01:10.883Z,0.00
2023-04-23T01:02:10.971Z,0.00
2023-04-23T01:03:10.968Z,0.00
2023-04-23T01:04:10.914Z,0.00
2023-04-23T01:05:10.806Z,0.00
2023-04-23T01:06:10.808Z,0.00
2023-04-23T01:07:10.847Z,0.00
2023-04-23T01:08:10.859Z,0.00
2023-04-23T01:09:10.765Z,0.00
2023-04-23T01:10:10.755Z,0.00
2023-04-23T01:11:10.732Z,0.00
2023-04-23T01:12:10.738Z,0.00
2023-04-23T01:13:10.738Z,0.00
2023-04-23T01:14:10.722Z,0.00
2023-04-23T01:15:10.689Z,0.00
2023-04-23T01:16:10.687Z,0.00
2023-04-23T01:17:10.670Z,0.00
2023-04-23T01:18:10.674Z,0.00
2023-04-23T01:19:10.656Z,0.00
2023-04-23T01:20:10.654Z,0.00
2023-04-23T01:21:10.637Z,0.00
2023-04-23T01:22:10.620Z,0.00
2023-04-23T01:23:10.625Z,0.00
2023-04-23T01:24:10.688Z,0.00
2023-04-23T01:25:10.586Z,0.00
2023-04-23T01:26:17.009Z,0.00
2023-04-23T01:27:10.565Z,0.00
2023-04-23T01:28:10.566Z,0.00
2023-04-23T01:29:10.573Z,0.00
2023-04-23T01:30:10.544Z,0.00
2023-04-23T01:31:10.573Z,0.00
2023-04-23T01:32:10.509Z,0.00
2023-04-23T01:33:10.511Z,0.00
2023-04-23T01:34:10.500Z,0.00
2023-04-23T01:35:10.485Z,0.00
2023-04-23T01:36:10.490Z,0.00
2023-04-23T01:37:10.473Z,0.00
2023-04-23T01:38:10.489Z,0.00
2023-04-23T01:39:10.462Z,0.00
2023-04-23T01:40:10.459Z,0.00
2023-04-23T01:41:10.466Z,0.00
2023-04-23T01:42:10.445Z,0.00
2023-04-23T01:43:10.402Z,0.00
2023-04-23T01:44:10.391Z,0.00
2023-04-23T01:45:10.390Z,0.00
2023-04-23T01:46:10.420Z,0.00
2023-04-23T01:47:10.361Z,0.00
2023-04-23T01:48:10.366Z,0.00
2023-04-23T01:49:10.350Z,0.00
2023-04-23T01:50:10.337Z,0.00
2023-04-23T01:51:10.344Z,0.00
2023-04-23T01:52:10.320Z,0.00
2023-04-23T01:53:10.349Z,0.00
2023-04-23T01:54:10.338Z,0.00
2023-04-23T01:55:10.283Z,0.00
2023-04-23T01:56:10.266Z,0.00
2023-04-23T01:57:10.248Z,0.00
2023-04-23T01:58:10.248Z,0.00
2023-04-23T01:59:10.237Z,0.00
2023-04-23T02:00:10.259Z,0.00
2023-04-23T02:01:10.261Z,0.00
2023-04-23T02:02:10.256Z,0.00
2023-04-23T02:03:10.303Z,0.00
2023-04-23T02:04:10.227Z,0.00
2023-04-23T02:05:10.171Z,0.00
2023-04-23T02:06:10.166Z,0.00
2023-04-23T02:07:10.157Z,0.00
2023-04-23T02:08:10.242Z,0.00
2023-04-23T02:09:10.121Z,0.00
2023-04-23T02:10:10.115Z,0.00
2023-04-23T02:11:10.114Z,0.00
2023-04-23T02:12:10.117Z,0.00
2023-04-23T02:13:10.116Z,0.00
2023-04-23T02:14:10.091Z,0.00
2023-04-23T02:15:10.060Z,0.00
2023-04-23T02:16:10.110Z,0.00
2023-04-23T02:17:10.039Z,0.00
2023-04-23T02:18:10.037Z,0.00
2023-04-23T02:19:10.017Z,0.00
2023-04-23T02:20:10.027Z,0.00
2023-04-23T02:21:10.001Z,0.00
2023-04-23T02:22:10.020Z,0.00
2023-04-23T02:23:09.984Z,0.00
2023-04-23T02:24:09.968Z,0.00
2023-04-23T02:25:09.974Z,0.00
2023-04-23T02:26:09.947Z,0.00
2023-04-23T02:27:09.933Z,0.00
2023-04-23T02:28:09.933Z,0.00
2023-04-23T02:29:10.001Z,0.00
2023-04-23T02:30:09.920Z,0.00
2023-04-23T02:31:09.920Z,0.00
2023-04-23T02:32:09.890Z,0.00
2023-04-23T02:33:09.879Z,0.00
2023-04-23T02:34:09.872Z,0.00
2023-04-23T02:35:09.855Z,0.00
2023-04-23T02:36:09.851Z,0.00
2023-04-23T02:37:09.848Z,0.00
2023-04-23T02:38:09.849Z,0.00
2023-04-23T02:39:09.817Z,0.00
2023-04-23T02:40:09.807Z,0.00
2023-04-23T02:41:09.796Z,0.00
2023-04-23T02:42:09.798Z,0.00
2023-04-23T02:43:09.786Z,0.00
2023-04-23T02:44:09.763Z,0.00
2023-04-23T02:45:09.751Z,0.00
2023-04-23T02:46:09.774Z,0.00
2023-04-23T02:47:09.728Z,0.00
2023-04-23T02:48:09.733Z,0.00
2023-04-23T02:49:09.744Z,0.00
2023-04-23T02:50:09.703Z,0.00
2023-04-23T02:51:09.684Z,0.00
2023-04-23T02:52:09.686Z,0.00
2023-04-23T02:53:09.723Z,0.00
2023-04-23T02:54:09.686Z,0.00
2023-04-23T02:55:09.670Z,0.00
2023-04-23T02:56:09.634Z,0.00
2023-04-23T02:57:09.622Z,0.00
2023-04-23T02:58:09.624Z,0.00
2023-04-23T02:59:09.607Z,0.00
2023-04-23T03:00:09.610Z,0.00
2023-04-23T03:01:09.594Z,0.00
2023-04-23T03:02:09.677Z,0.00
2023-04-23T03:03:12.503Z,0.00
2023-04-23T03:04:09.711Z,0.00
2023-04-23T03:05:09.536Z,0.00
2023-04-23T03:06:09.517Z,0.00
2023-04-23T03:07:09.525Z,0.00
2023-04-23T03:08:09.508Z,0.00
2023-04-23T03:09:09.494Z,0.00
2023-04-23T03:10:09.494Z,0.00
2023-04-23T03:11:09.477Z,0.00
2023-04-23T03:12:09.457Z,0.00
2023-04-23T03:13:09.456Z,0.00
2023-04-23T03:14:09.451Z,0.00
2023-04-23T03:15:09.439Z,0.00
2023-04-23T03:16:09.417Z,0.00
2023-04-23T03:17:09.422Z,0.00
2023-04-23T03:18:09.401Z,0.00
2023-04-23T03:19:09.400Z,0.00
2023-04-23T03:20:09.382Z,0.00
2023-04-23T03:21:09.392Z,0.00
2023-04-23T03:22:09.360Z,0.00
2023-04-23T03:23:09.358Z,0.00
2023-04-23T03:24:09.342Z,0.00
2023-04-23T03:25:09.291Z,1.00
2023-04-23T03:26:09.335Z,0.00
2023-04-23T03:27:09.326Z,0.00
2023-04-23T03:28:09.292Z,0.00
2023-04-23T03:29:09.297Z,0.00
2023-04-23T03:30:09.287Z,0.00
2023-04-23T03:31:09.314Z,0.00
2023-04-23T03:32:09.288Z,0.00
2023-04-23T03:33:09.246Z,0.00
2023-04-23T03:34:09.335Z,0.00
2023-04-23T03:35:09.239Z,0.00
2023-04-23T03:36:09.241Z,0.00
2023-04-23T03:37:09.242Z,0.00
2023-04-23T03:38:09.201Z,0.00
2023-04-23T03:39:09.186Z,0.00
2023-04-23T03:40:09.178Z,0.00
2023-04-23T03:41:09.191Z,0.00
2023-04-23T03:42:09.170Z,0.00
2023-04-23T03:43:09.147Z,0.00
2023-04-23T03:44:09.144Z,0.00
2023-04-23T03:45:09.146Z,0.00
2023-04-23T03:46:09.190Z,0.00
2023-04-23T03:47:09.133Z,0.00
2023-04-23T03:48:09.111Z,0.00
2023-04-23T03:49:09.106Z,0.00
2023-04-23T03:50:09.102Z,0.00
2023-04-23T03:51:09.103Z,0.00
2023-04-23T03:52:09.060Z,0.00
2023-04-23T03:53:09.056Z,0.00
2023-04-23T03:54:09.036Z,0.00
2023-04-23T03:55:09.022Z,0.00
2023-04-23T03:56:09.004Z,0.00
2023-04-23T03:57:09.012Z,0.00
2023-04-23T03:58:09.002Z,0.00
2023-04-23T03:59:09.009Z,0.00
2023-04-23T04:00:09.006Z,0.00
2023-04-23T04:01:08.989Z,0.00
2023-04-23T04:02:08.988Z,1.00
2023-04-23T04:03:09.028Z,1.00
2023-04-23T04:04:09.257Z,1.00
2023-04-23T04:05:09.130Z,1.00
2023-04-23T04:06:08.856Z,1.00
2023-04-23T04:07:08.857Z,2.00
2023-04-23T04:08:08.843Z,2.00
2023-04-23T04:09:08.862Z,2.00
2023-04-23T04:10:08.819Z,2.00
2023-04-23T04:11:08.803Z,2.00
2023-04-23T04:12:08.802Z,3.00
2023-04-23T04:13:08.791Z,1.00
2023-04-23T04:14:08.791Z,3.00
2023-04-23T04:15:08.799Z,5.00
2023-04-23T04:16:08.832Z,6.00
2023-04-23T04:17:08.757Z,7.00
2023-04-23T04:18:08.746Z,7.00
2023-04-23T04:19:09.052Z,5.00
2023-04-23T04:20:08.719Z,6.00
2023-04-23T04:21:08.724Z,9.00
2023-04-23T04:22:08.708Z,10.00
2023-04-23T04:23:08.698Z,11.00
2023-04-23T04:24:08.685Z,17.00
2023-04-23T04:25:08.691Z,14.00
2023-04-23T04:26:08.664Z,14.00
2023-04-23T04:27:08.652Z,17.00
2023-04-23T04:28:08.634Z,18.00
2023-04-23T04:29:08.628Z,19.00
2023-04-23T04:30:08.605Z,21.00
2023-04-23T04:31:08.669Z,22.00
2023-04-23T04:32:08.585Z,23.00
2023-04-23T04:33:08.577Z,24.00
2023-04-23T04:34:08.562Z,25.00
2023-04-23T04:35:08.555Z,27.00
2023-04-23T04:36:08.546Z,28.00
2023-04-23T04:37:08.532Z,31.00
2023-04-23T04:38:08.538Z,29.00
2023-04-23T04:39:08.506Z,33.00
2023-04-23T04:40:08.495Z,35.00
2023-04-23T04:41:08.489Z,35.00
2023-04-23T04:42:08.484Z,38.00
2023-04-23T04:43:08.499Z,39.00
2023-04-23T04:44:08.450Z,42.00
2023-04-23T04:45:08.445Z,45.00
2023-04-23T04:46:08.429Z,45.00
2023-04-23T04:47:08.607Z,47.00
2023-04-23T04:48:08.422Z,49.00
2023-04-23T04:49:08.405Z,50.00
2023-04-23T04:50:08.427Z,51.00
2023-04-23T04:51:08.387Z,55.00
2023-04-23T04:52:08.360Z,57.00
2023-04-23T04:53:08.366Z,63.00
2023-04-23T04:54:08.344Z,71.00
2023-04-23T04:55:08.347Z,73.00
2023-04-23T04:56:08.324Z,75.00
2023-04-23T04:57:08.317Z,75.00
2023-04-23T04:58:08.310Z,77.00
2023-04-23T04:59:08.301Z,76.00
2023-04-23T05:00:08.274Z,78.00
2023-04-23T05:01:08.294Z,82.00
2023-04-23T05:02:08.318Z,83.00
2023-04-23T05:03:09.363Z,83.00
2023-04-23T05:04:08.568Z,86.00
2023-04-23T05:05:08.235Z,87.00
2023-04-23T05:06:08.211Z,89.00
2023-04-23T05:07:08.212Z,90.00
2023-04-23T05:08:08.196Z,98.00
2023-04-23T05:09:08.198Z,99.00
2023-04-23T05:10:08.203Z,101.00
2023-04-23T05:11:08.165Z,107.00
2023-04-23T05:12:08.152Z,104.00
2023-04-23T05:13:08.158Z,101.00
2023-04-23T05:14:08.132Z,103.00
2023-04-23T05:15:08.136Z,106.00
2023-04-23T05:16:08.199Z,109.00
2023-04-23T05:17:08.110Z,98.00
2023-04-23T05:18:08.096Z,132.00
2023-04-23T05:19:08.106Z,142.00
2023-04-23T05:20:08.081Z,147.00
2023-04-23T05:21:08.064Z,172.00
2023-04-23T05:22:08.038Z,142.00
2023-04-23T05:23:08.047Z,131.00
2023-04-23T05:24:08.038Z,108.00
2023-04-23T05:25:08.047Z,140.00
2023-04-23T05:26:08.025Z,161.00
2023-04-23T05:27:07.998Z,170.00
2023-04-23T05:28:08.002Z,192.00
2023-04-23T05:29:07.968Z,209.00
2023-04-23T05:30:07.955Z,245.00
2023-04-23T05:31:07.952Z,259.00
2023-04-23T05:32:07.969Z,241.00
2023-04-23T05:33:07.931Z,219.00
2023-04-23T05:34:07.903Z,218.00
2023-04-23T05:35:07.900Z,224.00
2023-04-23T05:36:07.889Z,231.00
2023-04-23T05:37:07.877Z,228.00
2023-04-23T05:38:07.872Z,213.00
2023-04-23T05:39:07.854Z,217.00
2023-04-23T05:40:07.910Z,232.00
2023-04-23T05:41:07.834Z,229.00
2023-04-23T05:42:07.825Z,243.00
2023-04-23T05:43:07.821Z,247.00
2023-04-23T05:44:07.807Z,246.00
2023-04-23T05:45:08.999Z,241.00
2023-04-23T05:46:07.998Z,247.00
2023-04-23T05:47:07.774Z,268.00
2023-04-23T05:48:07.765Z,287.00
2023-04-23T05:49:07.771Z,301.00
2023-04-23T05:50:07.730Z,333.00
2023-04-23T05:51:07.729Z,325.00
2023-04-23T05:52:07.721Z,334.00
2023-04-23T05:53:07.713Z,353.00
2023-04-23T05:54:07.685Z,359.00
2023-04-23T05:55:07.693Z,351.00
2023-04-23T05:56:07.844Z,362.00
2023-04-23T05:57:07.699Z,360.00
2023-04-23T05:58:07.700Z,376.00
2023-04-23T05:59:07.671Z,414.00
2023-04-23T06:00:08.173Z,376.00
2023-04-23T06:01:07.617Z,414.00
2023-04-23T06:02:07.836Z,430.00
2023-04-23T06:03:07.750Z,380.00
2023-04-23T06:04:07.730Z,300.00
2023-04-23T06:05:07.747Z,284.00
2023-04-23T06:06:07.558Z,263.00
2023-04-23T06:07:07.571Z,268.00
2023-04-23T06:08:07.544Z,262.00
2023-04-23T06:09:07.533Z,261.00
2023-04-23T06:10:07.516Z,268.00
2023-04-23T06:11:07.522Z,280.00
2023-04-23T06:12:07.510Z,293.00
2023-04-23T06:13:07.490Z,302.00
2023-04-23T06:14:07.476Z,302.00
2023-04-23T06:15:07.464Z,307.00
2023-04-23T06:16:07.507Z,322.00
2023-04-23T06:17:07.467Z,324.00
2023-04-23T06:18:07.491Z,330.00
2023-04-23T06:19:07.439Z,325.00
2023-04-23T06:20:07.412Z,321.00
2023-04-23T06:21:07.422Z,309.00
2023-04-23T06:22:07.403Z,322.00
2023-04-23T06:23:07.405Z,330.00
2023-04-23T06:24:07.398Z,328.00
2023-04-23T06:25:07.363Z,340.00
2023-04-23T06:26:07.349Z,346.00
2023-04-23T06:27:07.367Z,337.00
2023-04-23T06:28:07.349Z,350.00
2023-04-23T06:29:07.332Z,355.00
2023-04-23T06:30:07.318Z,355.00
2023-04-23T06:31:07.346Z,373.00
2023-04-23T06:32:07.286Z,371.00
2023-04-23T06:33:07.283Z,365.00
2023-04-23T06:34:07.267Z,376.00
2023-04-23T06:35:08.090Z,385.00
2023-04-23T06:36:07.253Z,392.00
2023-04-23T06:37:07.240Z,388.00
2023-04-23T06:38:07.254Z,401.00
2023-04-23T06:39:07.217Z,371.00
2023-04-23T06:40:07.214Z,364.00
2023-04-23T06:41:07.214Z,388.00
2023-04-23T06:42:07.206Z,381.00
2023-04-23T06:43:07.199Z,408.00
2023-04-23T06:44:07.162Z,368.00
2023-04-23T06:45:07.168Z,378.00
2023-04-23T06:46:07.150Z,362.00
2023-04-23T06:47:07.209Z,378.00
2023-04-23T06:48:07.156Z,276.00
2023-04-23T06:49:07.129Z,312.00
2023-04-23T06:50:07.106Z,335.00
2023-04-23T06:51:07.104Z,292.00
2023-04-23T06:52:07.089Z,278.00
2023-04-23T06:53:07.077Z,319.00
2023-04-23T06:54:07.056Z,398.00
2023-04-23T06:55:07.050Z,448.00
2023-04-23T06:56:07.061Z,468.00
2023-04-23T06:57:07.026Z,471.00
2023-04-23T06:58:07.013Z,501.00
2023-04-23T06:59:07.040Z,493.00
2023-04-23T07:00:07.004Z,499.00
2023-04-23T07:01:07.046Z,509.00
2023-04-23T07:02:06.992Z,513.00
2023-04-23T07:03:07.121Z,524.00
2023-04-23T07:04:07.001Z,518.00
2023-04-23T07:05:07.009Z,514.00
2023-04-23T07:06:06.945Z,497.00
2023-04-23T07:07:06.936Z,478.00
2023-04-23T07:08:06.944Z,479.00
2023-04-23T07:09:06.957Z,492.00
2023-04-23T07:10:06.915Z,507.00
2023-04-23T07:11:06.901Z,501.00
2023-04-23T07:12:06.889Z,477.00
2023-04-23T07:13:06.893Z,471.00
2023-04-23T07:14:06.892Z,469.00
2023-04-23T07:15:06.889Z,479.00
2023-04-23T07:16:07.037Z,490.00
2023-04-23T07:17:06.905Z,540.00
2023-04-23T07:18:06.838Z,556.00
2023-04-23T07:19:06.828Z,619.00
2023-04-23T07:20:06.916Z,600.00
2023-04-23T07:21:06.808Z,611.00
2023-04-23T07:22:06.792Z,611.00
2023-04-23T07:23:06.776Z,593.00
2023-04-23T07:24:06.997Z,584.00
2023-04-23T07:25:06.792Z,543.00
2023-04-23T07:26:06.921Z,505.00
2023-04-23T07:27:06.737Z,503.00
2023-04-23T07:28:06.736Z,484.00
2023-04-23T07:29:06.758Z,409.00
2023-04-23T07:30:06.732Z,479.00
2023-04-23T07:31:06.697Z,439.00
2023-04-23T07:32:06.696Z,411.00
2023-04-23T07:33:06.773Z,420.00
2023-04-23T07:34:06.679Z,404.00
2023-04-23T07:35:06.655Z,381.00
2023-04-23T07:36:06.642Z,377.00
2023-04-23T07:37:06.652Z,358.00
2023-04-23T07:38:06.641Z,260.00
2023-04-23T07:39:06.718Z,267.00
2023-04-23T07:40:06.610Z,495.00
2023-04-23T07:41:06.593Z,427.00
2023-04-23T07:42:06.678Z,413.00
2023-04-23T07:43:06.577Z,440.00
2023-04-23T07:44:06.587Z,439.00
2023-04-23T07:45:06.564Z,443.00
2023-04-23T07:46:06.604Z,422.00
2023-04-23T07:47:06.546Z,444.00
2023-04-23T07:48:06.530Z,441.00
2023-04-23T07:49:06.522Z,438.00
2023-04-23T07:50:06.509Z,429.00
2023-04-23T07:51:06.495Z,434.00
2023-04-23T07:52:06.520Z,439.00
2023-04-23T07:53:06.478Z,453.00
2023-04-23T07:54:06.458Z,458.00
2023-04-23T07:55:06.469Z,452.00
2023-04-23T07:56:06.450Z,438.00
2023-04-23T07:57:06.472Z,446.00
2023-04-23T07:58:06.439Z,481.00
2023-04-23T07:59:06.424Z,451.00
2023-04-23T08:00:06.401Z,447.00
2023-04-23T08:01:06.390Z,445.00
2023-04-23T08:02:06.483Z,449.00
2023-04-23T08:03:06.482Z,450.00
2023-04-23T08:04:06.667Z,452.00
2023-04-23T08:05:06.388Z,424.00
2023-04-23T08:06:06.334Z,570.00
2023-04-23T08:07:06.346Z,478.00
2023-04-23T08:08:06.322Z,449.00
2023-04-23T08:09:06.322Z,458.00
2023-04-23T08:10:06.389Z,481.00
2023-04-23T08:11:06.284Z,463.00
2023-04-23T08:12:06.275Z,288.00
2023-04-23T08:13:06.273Z,240.00
2023-04-23T08:14:06.279Z,144.00
2023-04-23T08:15:06.257Z,479.00
2023-04-23T08:16:06.287Z,447.00
2023-04-23T08:17:06.228Z,471.00
2023-04-23T08:18:06.211Z,529.00
2023-04-23T08:19:06.640Z,524.00
2023-04-23T08:20:06.237Z,531.00
2023-04-23T08:21:06.177Z,496.00
2023-04-23T08:22:06.181Z,591.00
2023-04-23T08:23:06.168Z,426.00
2023-04-23T08:24:06.147Z,564.00
2023-04-23T08:25:06.154Z,549.00
2023-04-23T08:26:06.153Z,118.00
2023-04-23T08:27:06.128Z,614.00
2023-04-23T08:28:06.125Z,637.00
2023-04-23T08:29:06.105Z,578.00
2023-04-23T08:30:06.106Z,498.00
2023-04-23T08:31:18.987Z,430.00
2023-04-23T08:32:06.158Z,409.00
2023-04-23T08:33:06.246Z,686.00
2023-04-23T08:34:06.050Z,858.00
2023-04-23T08:35:06.064Z,717.00
2023-04-23T08:36:06.022Z,844.00
2023-04-23T08:37:08.475Z,681.00
2023-04-23T08:38:06.024Z,500.00
2023-04-23T08:39:05.999Z,463.00
2023-04-23T08:40:06.015Z,534.00
2023-04-23T08:41:05.962Z,470.00
2023-04-23T08:42:05.966Z,334.00
2023-04-23T08:43:05.974Z,155.00
2023-04-23T08:44:05.943Z,463.00
2023-04-23T08:45:06.169Z,253.00
2023-04-23T08:46:05.919Z,476.00
2023-04-23T08:47:05.914Z,458.00
2023-04-23T08:48:05.955Z,511.00
2023-04-23T08:49:05.879Z,549.00
2023-04-23T08:50:05.917Z,261.00
2023-04-23T08:51:05.868Z,468.00
2023-04-23T08:52:05.866Z,294.00
2023-04-23T08:53:05.850Z,216.00
2023-04-23T08:54:05.839Z,555.00
2023-04-23T08:55:05.889Z,481.00
2023-04-23T08:56:05.819Z,475.00
2023-04-23T08:57:05.799Z,481.00
2023-04-23T08:58:05.814Z,527.00
2023-04-23T08:59:05.818Z,413.00
2023-04-23T09:00:05.783Z,410.00
2023-04-23T09:01:05.774Z,599.00
2023-04-23T09:02:05.832Z,551.00
2023-04-23T09:03:05.904Z,574.00
2023-04-23T09:04:05.759Z,528.00
2023-04-23T09:05:05.765Z,443.00
2023-04-23T09:06:05.725Z,439.00
2023-04-23T09:07:05.701Z,431.00
2023-04-23T09:08:05.694Z,550.00
2023-04-23T09:09:05.698Z,585.00
2023-04-23T09:10:05.669Z,527.00
2023-04-23T09:11:05.665Z,765.00
2023-04-23T09:12:05.662Z,569.00
2023-04-23T09:13:05.632Z,412.00
2023-04-23T09:14:05.628Z,358.00
2023-04-23T09:15:06.249Z,349.00
2023-04-23T09:16:05.665Z,344.00
2023-04-23T09:17:05.597Z,292.00
2023-04-23T09:18:05.645Z,757.00
2023-04-23T09:19:05.582Z,813.00
2023-04-23T09:20:05.606Z,660.00
2023-04-23T09:21:05.566Z,850.00
2023-04-23T09:22:05.562Z,723.00
2023-04-23T09:23:05.532Z,500.00
2023-04-23T09:24:05.532Z,470.00
2023-04-23T09:25:05.541Z,737.00
2023-04-23T09:26:05.571Z,972.00
2023-04-23T09:27:05.494Z,976.00
2023-04-23T09:28:05.507Z,885.00
2023-04-23T09:29:05.480Z,940.00
2023-04-23T09:30:05.462Z,873.00
2023-04-23T09:31:05.567Z,805.00
2023-04-23T09:32:05.472Z,736.00
2023-04-23T09:33:05.481Z,598.00
2023-04-23T09:34:05.441Z,606.00
2023-04-23T09:35:05.429Z,638.00
2023-04-23T09:36:05.425Z,511.00
2023-04-23T09:37:11.726Z,467.00
2023-04-23T09:38:05.383Z,456.00
2023-04-23T09:39:05.379Z,738.00
2023-04-23T09:40:05.361Z,872.00
2023-04-23T09:41:05.372Z,885.00
2023-04-23T09:42:05.357Z,990.00
2023-04-23T09:43:05.347Z,1194.00
2023-04-23T09:44:05.321Z,963.00
2023-04-23T09:45:05.337Z,780.00
2023-04-23T09:46:05.358Z,854.00
2023-04-23T09:47:05.283Z,913.00
2023-04-23T09:48:05.339Z,706.00
2023-04-23T09:49:05.272Z,863.00
2023-04-23T09:50:05.255Z,835.00
2023-04-23T09:51:05.264Z,822.00
2023-04-23T09:52:05.246Z,604.00
2023-04-23T09:53:05.224Z,499.00
2023-04-23T09:54:05.224Z,725.00
2023-04-23T09:55:05.231Z,848.00
2023-04-23T09:56:05.208Z,791.00
2023-04-23T09:57:05.193Z,846.00
2023-04-23T09:58:05.166Z,751.00
2023-04-23T09:59:05.188Z,629.00
2023-04-23T10:00:13.948Z,836.00
2023-04-23T10:01:05.160Z,802.00
2023-04-23T10:02:05.178Z,843.00
2023-04-23T10:03:05.309Z,782.00
2023-04-23T10:04:05.431Z,1074.00
2023-04-23T10:05:21.266Z,1286.00
2023-04-23T10:06:05.136Z,1010.00
2023-04-23T10:07:17.816Z,747.00
2023-04-23T10:08:05.094Z,797.00
2023-04-23T10:09:05.060Z,859.00
2023-04-23T10:10:05.081Z,826.00
2023-04-23T10:11:20.092Z,801.00
2023-04-23T10:12:05.117Z,884.00
2023-04-23T10:13:05.007Z,822.00
2023-04-23T10:14:05.021Z,886.00
2023-04-23T10:15:05.020Z,851.00
2023-04-23T10:16:14.511Z,964.00
2023-04-23T10:17:05.011Z,1070.00
2023-04-23T10:18:04.985Z,990.00
2023-04-23T10:19:04.969Z,875.00
2023-04-23T10:20:04.962Z,978.00
2023-04-23T10:21:04.944Z,811.00
2023-04-23T10:22:18.475Z,1105.00
2023-04-23T10:23:04.908Z,1251.00
2023-04-23T10:24:04.894Z,1357.00
2023-04-23T10:25:04.897Z,1073.00
2023-04-23T10:26:04.909Z,1040.00
2023-04-23T10:27:04.876Z,1002.00
2023-04-23T10:28:04.885Z,895.00
2023-04-23T10:29:04.870Z,864.00
2023-04-23T10:30:06.267Z,791.00
2023-04-23T10:31:04.859Z,712.00
2023-04-23T10:32:04.830Z,630.00
2023-04-23T10:33:07.346Z,596.00
2023-04-23T10:34:04.873Z,675.00
2023-04-23T10:35:04.776Z,840.00
2023-04-23T10:36:05.293Z,784.00
2023-04-23T10:37:04.778Z,764.00
2023-04-23T10:38:04.759Z,977.00
2023-04-23T10:39:05.161Z,1090.00
2023-04-23T10:40:04.754Z,1154.00
2023-04-23T10:41:04.716Z,1242.00
2023-04-23T10:42:04.710Z,1237.00
2023-04-23T10:43:04.697Z,1272.00
2023-04-23T10:44:04.695Z,1297.00
2023-04-23T10:45:13.118Z,1296.00
2023-04-23T10:46:04.720Z,1273.00
2023-04-23T10:47:04.652Z,1207.00
2023-04-23T10:48:04.669Z,1190.00
2023-04-23T10:49:04.647Z,1183.00
2023-04-23T10:50:04.749Z,1176.00
2023-04-23T10:51:25.024Z,1127.00
2023-04-23T10:53:03.625Z,1152.00
2023-04-23T10:54:04.597Z,1138.00
2023-04-23T10:55:04.576Z,1158.00
2023-04-23T10:56:04.562Z,1189.00
2023-04-23T10:57:04.571Z,1131.00
2023-04-23T10:58:04.567Z,1136.00
2023-04-23T10:59:04.532Z,1202.00
2023-04-23T11:00:04.565Z,1132.00
2023-04-23T11:01:04.526Z,1025.00
2023-04-23T11:02:04.541Z,1032.00
2023-04-23T11:03:04.590Z,1142.00
2023-04-23T11:04:04.567Z,1309.00
2023-04-23T11:05:04.628Z,1210.00
2023-04-23T11:06:04.457Z,1223.00
2023-04-23T11:07:04.450Z,1144.00
2023-04-23T11:08:18.267Z,1241.00
2023-04-23T11:09:04.481Z,1159.00
2023-04-23T11:10:04.456Z,1265.00
2023-04-23T11:11:04.406Z,1305.00
2023-04-23T11:12:04.401Z,1245.00
2023-04-23T11:13:04.390Z,1237.00
2023-04-23T11:14:04.419Z,1210.00
2023-04-23T11:15:04.370Z,1186.00
2023-04-23T11:16:04.423Z,1179.00
2023-04-23T11:17:04.353Z,1113.00
2023-04-23T11:18:04.354Z,1026.00
2023-04-23T11:19:04.331Z,931.00
2023-04-23T11:20:04.321Z,932.00
2023-04-23T11:21:04.352Z,817.00
2023-04-23T11:22:04.335Z,715.00
2023-04-23T11:23:04.280Z,568.00
2023-04-23T11:24:04.267Z,756.00
2023-04-23T11:25:04.269Z,836.00
2023-04-23T11:26:04.725Z,914.00
2023-04-23T11:27:04.264Z,832.00
2023-04-23T11:28:04.233Z,641.00
2023-04-23T11:29:04.270Z,679.00
2023-04-23T11:30:04.214Z,937.00
2023-04-23T11:31:04.206Z,1096.00
2023-04-23T11:32:04.323Z,1192.00
2023-04-23T11:33:04.296Z,1249.00
2023-04-23T11:34:04.210Z,1259.00
2023-04-23T11:35:04.165Z,1242.00
2023-04-23T11:36:04.143Z,1199.00
2023-04-23T11:37:04.140Z,1205.00
2023-04-23T11:38:04.128Z,1180.00
2023-04-23T11:39:04.143Z,1378.00
2023-04-23T11:40:04.129Z,1231.00
2023-04-23T11:41:04.105Z,1174.00
2023-04-23T11:42:04.104Z,1163.00
2023-04-23T11:43:04.163Z,1096.00
2023-04-23T11:44:04.066Z,872.00
2023-04-23T11:45:04.063Z,1119.00
2023-04-23T11:46:04.094Z,1295.00
2023-04-23T11:47:04.091Z,1265.00
2023-04-23T11:48:04.074Z,1184.00
2023-04-23T11:49:04.022Z,972.00
2023-04-23T11:50:03.998Z,1034.00
2023-04-23T11:51:04.010Z,1164.00
2023-04-23T11:52:04.006Z,956.00
2023-04-23T11:53:03.978Z,1432.00
2023-04-23T11:54:03.972Z,1604.00
2023-04-23T11:55:03.959Z,1766.00
2023-04-23T11:56:03.942Z,1592.00
2023-04-23T11:57:03.931Z,1363.00
2023-04-23T11:58:03.946Z,1049.00
2023-04-23T11:59:03.922Z,1118.00
2023-04-23T12:00:03.907Z,915.00
2023-04-23T12:01:03.893Z,884.00
2023-04-23T12:02:03.902Z,1115.00
2023-04-23T12:03:04.078Z,1200.00
2023-04-23T12:04:04.222Z,1005.00
2023-04-23T12:05:03.869Z,731.00
2023-04-23T12:06:03.839Z,919.00
2023-04-23T12:07:10.192Z,1185.00
2023-04-23T12:08:03.851Z,1377.00
2023-04-23T12:09:03.841Z,1290.00
2023-04-23T12:10:03.801Z,1069.00
2023-04-23T12:11:03.794Z,834.00
2023-04-23T12:12:03.770Z,642.00
2023-04-23T12:13:03.789Z,473.00
2023-04-23T12:14:03.747Z,462.00
2023-04-23T12:15:03.789Z,469.00
2023-04-23T12:16:03.762Z,562.00
2023-04-23T12:17:03.726Z,906.00
2023-04-23T12:18:03.789Z,1186.00
2023-04-23T12:19:03.723Z,1312.00
2023-04-23T12:20:03.689Z,1297.00
2023-04-23T12:21:03.707Z,1163.00
2023-04-23T12:22:03.676Z,1082.00
2023-04-23T12:23:03.664Z,1024.00
2023-04-23T12:24:03.655Z,945.00
2023-04-23T12:25:03.649Z,932.00
2023-04-23T12:26:03.645Z,1118.00
2023-04-23T12:27:03.641Z,1298.00
2023-04-23T12:28:03.619Z,1537.00
2023-04-23T12:29:03.626Z,1633.00
2023-04-23T12:30:06.335Z,1670.00
2023-04-23T12:31:03.598Z,1631.00
2023-04-23T12:32:03.572Z,1602.00
2023-04-23T12:33:03.649Z,1519.00
2023-04-23T12:34:03.556Z,1462.00
2023-04-23T12:35:03.539Z,1363.00
2023-04-23T12:36:03.522Z,1301.00
2023-04-23T12:37:03.528Z,1308.00
2023-04-23T12:38:03.500Z,1305.00
2023-04-23T12:39:03.516Z,1312.00
2023-04-23T12:40:03.493Z,1339.00
2023-04-23T12:41:03.508Z,1382.00
2023-04-23T12:42:03.470Z,1366.00
2023-04-23T12:43:03.464Z,1400.00
2023-04-23T12:44:03.439Z,1449.00